EDT,Max TemperatureF,Mean TemperatureF,Min TemperatureF,Max Dew PointF,MeanDew PointF,Min DewpointF,Max Humidity, Mean Humidity, Min Humidity, Max Sea Level PressureIn, Mean Sea Level PressureIn, Min Sea Level PressureIn, Max VisibilityMiles, Mean VisibilityMiles, Min VisibilityMiles, Max Wind SpeedMPH, Mean Wind SpeedMPH, Max Gust SpeedMPH,PrecipitationIn, CloudCover, Events, WindDirDegrees
2013-10-1,81,66,51,58,54,49,96,66,35,29.99,29.94,29.89,10,10,7,15,5,18,0.00,1,,294
2013-10-2,84,70,55,61,57,53,93,67,40,30.00,29.94,29.89,10,9,6,16,5,21,0.00,0,,287
2013-10-3,78,66,54,57,52,44,93,62,31,30.11,30.06,30.01,10,10,7,12,5,15,0.00,5,,286
2013-10-4,82,71,59,65,62,56,93,74,54,30.06,30.02,29.98,10,9,4,15,4,20,T,4,,213
2013-10-5,76,70,64,64,62,60,93,79,64,30.09,30.05,30.01,10,7,2,10,6,13,0.00,7,,80
2013-10-6,68,66,64,66,63,62,100,97,93,30.12,30.08,30.05,6,3,1,15,8,20,T,8,,117
2013-10-7,77,69,61,68,65,52,100,84,67,30.04,29.93,29.83,10,7,2,28,13,40,0.08,7,Rain,183
2013-10-8,68,60,52,50,43,39,77,57,37,30.31,30.18,29.97,10,10,10,22,10,29,0.00,5,,345
2013-10-9,65,58,50,47,45,41,72,62,52,30.38,30.33,30.28,10,10,10,21,11,26,0.00,6,,62
2013-10-10,67,61,55,56,53,48,86,77,68,30.27,30.17,30.07,10,10,7,21,14,29,0.02,7,Rain,42
2013-10-11,69,65,60,58,56,53,84,75,66,30.08,30.04,30.01,10,10,10,21,13,28,0.00,8,,47
2013-10-12,73,64,55,54,48,38,78,56,34,30.28,30.17,30.07,10,10,10,25,15,33,0.05,5,Rain,58
2013-10-13,65,58,50,50,48,45,83,70,56,30.37,30.34,30.27,10,10,10,17,10,25,0.00,4,,59
2013-10-14,66,56,46,49,45,42,93,71,48,30.36,30.30,30.26,10,10,10,12,4,15,0.00,3,,78
2013-10-15,71,58,45,52,46,42,92,66,39,30.25,30.19,30.12,10,10,10,14,4,16,0.00,2,,88
2013-10-16,70,61,52,58,54,48,90,78,66,30.09,30.02,29.91,10,10,10,10,5,13,0.00,7,,84
2013-10-17,74,68,61,61,59,58,97,82,66,29.91,29.83,29.72,10,9,6,16,8,22,T,7,,215
2013-10-18,69,60,50,63,51,41,93,66,39,29.96,29.79,29.67,10,10,5,22,10,26,0.02,3,Rain,261
2013-10-19,67,55,43,57,46,39,89,65,40,29.98,29.89,29.74,10,10,10,15,5,20,0.02,6,Rain,178
2013-10-20,64,54,43,57,40,34,77,56,34,30.05,29.89,29.73,10,10,10,21,8,26,T,2,Rain,288
2013-10-21,66,53,39,46,39,34,85,59,32,30.14,30.08,29.99,10,10,9,15,6,20,0.00,1,,203
2013-10-22,69,58,46,51,46,42,93,68,42,29.98,29.82,29.74,10,10,6,21,8,24,0.00,3,,235
2013-10-23,53,47,41,42,36,32,76,62,48,29.80,29.70,29.61,10,10,6,14,6,20,0.02,6,Rain,3
2013-10-24,57,48,39,35,29,24,79,55,30,29.98,29.86,29.73,10,10,10,21,10,29,0.00,2,,275
2013-10-25,54,45,35,34,29,26,70,53,35,30.20,30.09,29.99,10,10,10,23,8,31,0.00,2,,289
2013-10-26,55,44,32,36,31,26,82,59,35,30.20,30.08,29.90,10,10,10,25,12,35,0.00,2,,232
2013-10-27,60,49,38,38,32,28,70,51,31,30.10,29.95,29.85,10,10,10,20,8,25,T,4,Rain,271
2013-10-28,62,48,33,35,31,29,82,56,30,30.31,30.19,30.11,10,10,10,20,6,24,0.00,3,,276
2013-10-29,56,47,37,35,31,28,76,57,38,30.41,30.36,30.31,10,10,10,14,5,17,0.00,4,,21
2013-10-30,61,51,40,52,43,33,93,74,55,30.34,30.26,30.19,10,10,7,14,4,17,0.00,6,,221
2013-10-31,66,56,46,61,52,44,100,89,78,30.22,30.09,29.85,10,6,0,21,9,30,0.01,7,Fog-Rain,183